LOT4KK EVRA-EPGD
Flight info
| Callsign | LOT4KK |
|---|---|
| Flight time | N/A |
| Altitude | 30000 |
| Route | VALED DCT ADAXA DCT NINTA DCT DIPEB DCT ANFEV DCT PENOR/N0440F310 N133 DOMAG T240 OGDAV |
| Aircraft | E75L/M-SDE3GILORVW/S |
Departure
| Time | N/A |
|---|---|
| Airport | Riga International Airport (EVRA) |
Arrival
| Time | 2026-05-04 12:10 |
|---|---|
| Airport | Gdańsk Lech Wałęsa Airport (EPGD) |
| Time | Latitude | Longitude | Altitude | Speed | Heading |
|---|---|---|---|---|---|
| 2026-05-04 11:22 | 56.52775 | 20.72314 | 30050 ft | 376 kts | 255° |
| 2026-05-04 11:22 | 56.52225 | 20.67659 | 30055 ft | 376 kts | 255° |
| 2026-05-04 11:23 | 56.51125 | 20.58397 | 30062 ft | 374 kts | 254° |
| 2026-05-04 11:25 | 56.47227 | 20.26074 | 30051 ft | 377 kts | 254° |
| 2026-05-04 11:25 | 56.46089 | 20.16787 | 30041 ft | 377 kts | 254° |
| 2026-05-04 11:27 | 56.40904 | 19.75199 | 30061 ft | 377 kts | 254° |
| 2026-05-04 11:28 | 56.39740 | 19.66025 | 30048 ft | 377 kts | 254° |
| 2026-05-04 11:28 | 56.38560 | 19.56794 | 30057 ft | 377 kts | 254° |
| 2026-05-04 11:29 | 56.37374 | 19.47574 | 30051 ft | 377 kts | 254° |
| 2026-05-04 11:29 | 56.36181 | 19.38343 | 30062 ft | 377 kts | 254° |
| 2026-05-04 11:33 | 56.28051 | 18.74253 | 30061 ft | 375 kts | 256° |
| 2026-05-04 11:33 | 56.27024 | 18.65043 | 30060 ft | 375 kts | 256° |
| 2026-05-04 11:34 | 56.25994 | 18.55879 | 30065 ft | 374 kts | 256° |
| 2026-05-04 11:34 | 56.24953 | 18.46694 | 30052 ft | 374 kts | 256° |
| 2026-05-04 11:35 | 56.23907 | 18.37520 | 30059 ft | 374 kts | 256° |
| 2026-05-04 11:35 | 56.22844 | 18.28449 | 30060 ft | 373 kts | 253° |
| 2026-05-04 11:36 | 56.21525 | 18.19433 | 30059 ft | 373 kts | 253° |
| 2026-05-04 11:36 | 56.20178 | 18.10436 | 30062 ft | 373 kts | 253° |
| 2026-05-04 11:37 | 56.18642 | 18.01557 | 30052 ft | 371 kts | 244° |
| 2026-05-04 11:37 | 56.15792 | 17.93873 | 30090 ft | 373 kts | 234° |
| 2026-05-04 11:38 | 56.12406 | 17.86793 | 30058 ft | 374 kts | 229° |
| 2026-05-04 11:38 | 56.08805 | 17.80055 | 30044 ft | 374 kts | 229° |
| 2026-05-04 11:39 | 56.05190 | 17.73366 | 30066 ft | 374 kts | 229° |
| 2026-05-04 11:41 | 55.92531 | 17.50083 | 30069 ft | 374 kts | 229° |
| 2026-05-04 11:41 | 55.88890 | 17.43431 | 30076 ft | 374 kts | 229° |
| 2026-05-04 11:42 | 55.85259 | 17.36814 | 30061 ft | 373 kts | 229° |
| 2026-05-04 11:42 | 55.81647 | 17.30249 | 30081 ft | 373 kts | 229° |
| 2026-05-04 11:43 | 55.77407 | 17.24782 | 30086 ft | 381 kts | 213° |
| 2026-05-04 11:43 | 55.72496 | 17.21012 | 30086 ft | 388 kts | 204° |
| 2026-05-04 11:44 | 55.67373 | 17.18123 | 30091 ft | 391 kts | 201° |
| 2026-05-04 11:44 | 55.64652 | 17.17370 | 30086 ft | 401 kts | 190° |
| 2026-05-04 11:44 | 55.61830 | 17.17592 | 30071 ft | 414 kts | 180° |
| 2026-05-04 11:44 | 55.58980 | 17.18800 | 30091 ft | 427 kts | 169° |
| 2026-05-04 11:45 | 55.56225 | 17.20932 | 30113 ft | 436 kts | 161° |
| 2026-05-04 11:45 | 55.50905 | 17.26192 | 30095 ft | 439 kts | 158° |
| 2026-05-04 11:46 | 55.45528 | 17.30941 | 30111 ft | 433 kts | 163° |
| 2026-05-04 11:46 | 55.40054 | 17.35346 | 30098 ft | 432 kts | 164° |
| 2026-05-04 11:47 | 55.34570 | 17.39723 | 30089 ft | 432 kts | 164° |
| 2026-05-04 11:47 | 55.29044 | 17.44125 | 30096 ft | 437 kts | 163° |
| 2026-05-04 11:48 | 55.23532 | 17.48548 | 30033 ft | 437 kts | 163° |
| 2026-05-04 11:48 | 55.17974 | 17.52851 | 29940 ft | 436 kts | 164° |
| 2026-05-04 11:49 | 55.12455 | 17.57088 | 29913 ft | 436 kts | 164° |
| 2026-05-04 11:49 | 55.06899 | 17.61344 | 29914 ft | 436 kts | 164° |
| 2026-05-04 11:50 | 55.01347 | 17.65587 | 29324 ft | 431 kts | 163° |
| 2026-05-04 11:50 | 54.98697 | 17.68075 | 28430 ft | 438 kts | 154° |
| 2026-05-04 11:50 | 54.96234 | 17.71233 | 27695 ft | 439 kts | 148° |
| 2026-05-04 11:50 | 54.93998 | 17.74906 | 26924 ft | 441 kts | 140° |
| 2026-05-04 11:51 | 54.91868 | 17.78710 | 26529 ft | 436 kts | 141° |
| 2026-05-04 11:51 | 54.89791 | 17.82470 | 26183 ft | 433 kts | 140° |
| 2026-05-04 11:51 | 54.87704 | 17.86249 | 25685 ft | 432 kts | 140° |
| 2026-05-04 11:51 | 54.85632 | 17.90005 | 25135 ft | 428 kts | 141° |
| 2026-05-04 11:52 | 54.83617 | 17.93657 | 24573 ft | 406 kts | 141° |
| 2026-05-04 11:52 | 54.81696 | 17.97076 | 23998 ft | 384 kts | 142° |
| 2026-05-04 11:52 | 54.79815 | 18.00184 | 23421 ft | 364 kts | 149° |
| 2026-05-04 11:52 | 54.77828 | 18.02885 | 22795 ft | 362 kts | 150° |
| 2026-05-04 11:53 | 54.75856 | 18.05503 | 22211 ft | 360 kts | 151° |
| 2026-05-04 11:53 | 54.73865 | 18.08102 | 21637 ft | 357 kts | 151° |
| 2026-05-04 11:53 | 54.71888 | 18.10672 | 21075 ft | 353 kts | 151° |
| 2026-05-04 11:53 | 54.69948 | 18.13259 | 20508 ft | 350 kts | 148° |
| 2026-05-04 11:55 | 54.58230 | 18.34055 | 16699 ft | 338 kts | 139° |
| 2026-05-04 11:55 | 54.56655 | 18.37058 | 16121 ft | 336 kts | 139° |
| 2026-05-04 11:56 | 54.55089 | 18.40036 | 15566 ft | 333 kts | 139° |
| 2026-05-04 11:56 | 54.53530 | 18.42996 | 15030 ft | 331 kts | 138° |
| 2026-05-04 11:56 | 54.52007 | 18.45889 | 14501 ft | 328 kts | 138° |
| 2026-05-04 11:56 | 54.50477 | 18.48789 | 13978 ft | 326 kts | 138° |
| 2026-05-04 11:57 | 54.48954 | 18.51670 | 13431 ft | 324 kts | 138° |
| 2026-05-04 11:57 | 54.47436 | 18.54546 | 12838 ft | 322 kts | 138° |
| 2026-05-04 11:57 | 54.45934 | 18.57381 | 12261 ft | 318 kts | 139° |
| 2026-05-04 11:57 | 54.44493 | 18.60195 | 11716 ft | 316 kts | 135° |
| 2026-05-04 11:58 | 54.43173 | 18.63215 | 11165 ft | 316 kts | 130° |
| 2026-05-04 11:58 | 54.41990 | 18.66392 | 10620 ft | 316 kts | 123° |
| 2026-05-04 11:58 | 54.41053 | 18.69828 | 10119 ft | 317 kts | 119° |
| 2026-05-04 11:58 | 54.40177 | 18.73264 | 9979 ft | 314 kts | 118° |
| 2026-05-04 11:59 | 54.39310 | 18.76721 | 9933 ft | 315 kts | 118° |
| 2026-05-04 11:59 | 54.38459 | 18.80143 | 9390 ft | 305 kts | 118° |
| 2026-05-04 11:59 | 54.37661 | 18.83342 | 8967 ft | 287 kts | 118° |
| 2026-05-04 11:59 | 54.36891 | 18.86407 | 8526 ft | 273 kts | 118° |
| 2026-05-04 12:00 | 54.36156 | 18.89335 | 8085 ft | 262 kts | 118° |
| 2026-05-04 12:00 | 54.35447 | 18.92153 | 7650 ft | 253 kts | 118° |
| 2026-05-04 12:00 | 54.34760 | 18.94880 | 7216 ft | 245 kts | 118° |
| 2026-05-04 12:00 | 54.34088 | 18.97542 | 6723 ft | 242 kts | 118° |
| 2026-05-04 12:01 | 54.33380 | 19.00103 | 6222 ft | 231 kts | 133° |
| 2026-05-04 12:01 | 54.32177 | 19.01706 | 5624 ft | 214 kts | 170° |
| 2026-05-04 12:02 | 54.25786 | 18.94415 | 2261 ft | 241 kts | 281° |
| 2026-05-04 12:03 | 54.26458 | 18.91729 | 2300 ft | 252 kts | 296° |
| 2026-05-04 12:03 | 54.27229 | 18.89139 | 2222 ft | 243 kts | 290° |
| 2026-05-04 12:03 | 54.27831 | 18.86515 | 2133 ft | 230 kts | 289° |
| 2026-05-04 12:03 | 54.28442 | 18.84112 | 2186 ft | 209 kts | 291° |
| 2026-05-04 12:04 | 54.28996 | 18.81954 | 2091 ft | 188 kts | 289° |
| 2026-05-04 12:04 | 54.29482 | 18.79972 | 2033 ft | 170 kts | 289° |
| 2026-05-04 12:04 | 54.29915 | 18.78254 | 2003 ft | 149 kts | 289° |
| 2026-05-04 12:04 | 54.30298 | 18.76716 | 1999 ft | 132 kts | 288° |
| 2026-05-04 12:05 | 54.30628 | 18.75396 | 1986 ft | 117 kts | 288° |
| 2026-05-04 12:05 | 54.30978 | 18.73988 | 2052 ft | 134 kts | 289° |
| 2026-05-04 12:05 | 54.31344 | 18.72523 | 2041 ft | 133 kts | 289° |
| 2026-05-04 12:05 | 54.31707 | 18.71066 | 2066 ft | 133 kts | 289° |
| 2026-05-04 12:06 | 54.32072 | 18.69598 | 2072 ft | 134 kts | 289° |
| 2026-05-04 12:06 | 54.32435 | 18.68137 | 2078 ft | 133 kts | 289° |
| 2026-05-04 12:06 | 54.32800 | 18.66674 | 2071 ft | 134 kts | 289° |
| 2026-05-04 12:06 | 54.33158 | 18.65226 | 2039 ft | 133 kts | 289° |
| 2026-05-04 12:07 | 54.33525 | 18.63765 | 2025 ft | 134 kts | 289° |
| 2026-05-04 12:07 | 54.33887 | 18.62289 | 2046 ft | 134 kts | 289° |
| 2026-05-04 12:07 | 54.34256 | 18.60801 | 1964 ft | 136 kts | 290° |
| 2026-05-04 12:07 | 54.34621 | 18.59333 | 1786 ft | 135 kts | 290° |
| 2026-05-04 12:08 | 54.34986 | 18.57853 | 1631 ft | 133 kts | 290° |
| 2026-05-04 12:08 | 54.35350 | 18.56381 | 1446 ft | 134 kts | 291° |
| 2026-05-04 12:08 | 54.35722 | 18.54902 | 1257 ft | 135 kts | 292° |
| 2026-05-04 12:08 | 54.36079 | 18.53430 | 1091 ft | 136 kts | 292° |
| 2026-05-04 12:09 | 54.36446 | 18.51926 | 895 ft | 136 kts | 292° |
| 2026-05-04 12:09 | 54.36805 | 18.50433 | 716 ft | 136 kts | 294° |
| 2026-05-04 12:09 | 54.37175 | 18.48968 | 495 ft | 131 kts | 294° |
| 2026-05-04 12:09 | 54.37389 | 18.48112 | 463 ft | 91 kts | 292° |
| 2026-05-04 12:10 | 54.37584 | 18.47342 | 459 ft | 43 kts | 292° |
| 2026-05-04 12:10 | 54.37683 | 18.46989 | 452 ft | 29 kts | 301° |
| 2026-05-04 12:10 | 54.37801 | 18.46769 | 451 ft | 11 kts | 321° |
| 2026-05-04 12:10 | 54.37845 | 18.46711 | 451 ft | 13 kts | 323° |
| 2026-05-04 12:11 | 54.37915 | 18.46619 | 450 ft | 8 kts | 324° |
| 2026-05-04 12:11 | 54.37971 | 18.46580 | 449 ft | 9 kts | 0° |
| 2026-05-04 12:11 | 54.38034 | 18.46613 | 449 ft | 9 kts | 13° |
| 2026-05-04 12:11 | 54.38077 | 18.46599 | 449 ft | 5 kts | 358° |
| 2026-05-04 12:12 | 54.38109 | 18.46610 | 449 ft | 0 kts | 13° |
| 2026-05-04 12:12 | 54.38122 | 18.46615 | 449 ft | 0 kts | 12° |